sensor_id;sensor_type;location;lat;lon;timestamp;temperature;humidity
16532;DHT22;66872;63.142;14.482;2023-01-28T00:01:14;20.70;12.20
16532;DHT22;66872;63.142;14.482;2023-01-28T00:03:41;20.70;12.20
16532;DHT22;66872;63.142;14.482;2023-01-28T00:06:12;20.70;12.10
16532;DHT22;66872;63.142;14.482;2023-01-28T00:08:39;20.70;12.10
16532;DHT22;66872;63.142;14.482;2023-01-28T00:11:06;20.70;12.10
16532;DHT22;66872;63.142;14.482;2023-01-28T00:13:33;20.70;12.10
16532;DHT22;66872;63.142;14.482;2023-01-28T00:16:02;20.70;12.10
16532;DHT22;66872;63.142;14.482;2023-01-28T00:18:31;20.70;12.10
16532;DHT22;66872;63.142;14.482;2023-01-28T00:21:19;20.70;12.20
16532;DHT22;66872;63.142;14.482;2023-01-28T00:23:52;20.70;12.20
16532;DHT22;66872;63.142;14.482;2023-01-28T00:26:19;20.70;12.20
16532;DHT22;66872;63.142;14.482;2023-01-28T00:28:45;20.70;12.20
16532;DHT22;66872;63.142;14.482;2023-01-28T00:31:22;20.70;12.20
16532;DHT22;66872;63.142;14.482;2023-01-28T00:33:49;20.70;12.30
16532;DHT22;66872;63.142;14.482;2023-01-28T00:36:16;20.70;12.20
16532;DHT22;66872;63.142;14.482;2023-01-28T00:38:42;20.70;12.20
16532;DHT22;66872;63.142;14.482;2023-01-28T00:41:16;20.70;12.20
16532;DHT22;66872;63.142;14.482;2023-01-28T00:43:43;20.70;12.30
16532;DHT22;66872;63.142;14.482;2023-01-28T00:46:13;20.70;12.30
16532;DHT22;66872;63.142;14.482;2023-01-28T00:48:39;20.70;12.40
16532;DHT22;66872;63.142;14.482;2023-01-28T00:51:06;20.70;12.50
16532;DHT22;66872;63.142;14.482;2023-01-28T00:53:33;20.70;12.50
16532;DHT22;66872;63.142;14.482;2023-01-28T00:56:03;20.70;12.60
16532;DHT22;66872;63.142;14.482;2023-01-28T00:58:30;20.70;12.70
16532;DHT22;66872;63.142;14.482;2023-01-28T01:00:56;20.70;12.80
16532;DHT22;66872;63.142;14.482;2023-01-28T01:03:30;20.70;12.90
16532;DHT22;66872;63.142;14.482;2023-01-28T01:05:57;20.70;13.00
16532;DHT22;66872;63.142;14.482;2023-01-28T01:08:22;20.70;13.10
16532;DHT22;66872;63.142;14.482;2023-01-28T01:11:02;20.70;13.10
16532;DHT22;66872;63.142;14.482;2023-01-28T01:13:28;20.70;13.20
16532;DHT22;66872;63.142;14.482;2023-01-28T01:16:06;20.70;13.30
16532;DHT22;66872;63.142;14.482;2023-01-28T01:18:33;20.70;13.40
16532;DHT22;66872;63.142;14.482;2023-01-28T01:20:59;20.70;13.40
16532;DHT22;66872;63.142;14.482;2023-01-28T01:23:26;20.70;13.50
16532;DHT22;66872;63.142;14.482;2023-01-28T01:25:52;20.70;13.60
16532;DHT22;66872;63.142;14.482;2023-01-28T01:28:17;20.70;13.60
16532;DHT22;66872;63.142;14.482;2023-01-28T01:30:45;20.70;13.70
16532;DHT22;66872;63.142;14.482;2023-01-28T01:33:10;20.70;13.70
16532;DHT22;66872;63.142;14.482;2023-01-28T01:35:36;20.70;13.80
16532;DHT22;66872;63.142;14.482;2023-01-28T01:38:02;20.70;13.80
16532;DHT22;66872;63.142;14.482;2023-01-28T01:40:28;20.70;13.90
16532;DHT22;66872;63.142;14.482;2023-01-28T01:42:54;20.70;14.00
16532;DHT22;66872;63.142;14.482;2023-01-28T01:45:20;20.70;14.00
16532;DHT22;66872;63.142;14.482;2023-01-28T01:50:30;20.70;14.10
16532;DHT22;66872;63.142;14.482;2023-01-28T01:53:02;20.70;14.20
16532;DHT22;66872;63.142;14.482;2023-01-28T01:55:30;20.70;14.20
16532;DHT22;66872;63.142;14.482;2023-01-28T01:57:59;20.70;14.30
16532;DHT22;66872;63.142;14.482;2023-01-28T02:00:26;20.70;14.30
16532;DHT22;66872;63.142;14.482;2023-01-28T02:02:52;20.70;14.40
16532;DHT22;66872;63.142;14.482;2023-01-28T02:05:21;20.70;14.40
16532;DHT22;66872;63.142;14.482;2023-01-28T02:07:49;20.70;14.50
16532;DHT22;66872;63.142;14.482;2023-01-28T02:10:15;20.70;14.50
16532;DHT22;66872;63.142;14.482;2023-01-28T02:12:48;20.70;14.60
16532;DHT22;66872;63.142;14.482;2023-01-28T02:15:17;20.70;14.60
16532;DHT22;66872;63.142;14.482;2023-01-28T02:17:44;20.70;14.70
16532;DHT22;66872;63.142;14.482;2023-01-28T02:20:12;20.70;14.70
16532;DHT22;66872;63.142;14.482;2023-01-28T02:34:34;20.70;14.80
16532;DHT22;66872;63.142;14.482;2023-01-28T02:37:24;20.70;14.90
16532;DHT22;66872;63.142;14.482;2023-01-28T02:39:54;20.70;14.90
16532;DHT22;66872;63.142;14.482;2023-01-28T02:42:26;20.70;14.90
16532;DHT22;66872;63.142;14.482;2023-01-28T02:44:53;20.70;14.90
16532;DHT22;66872;63.142;14.482;2023-01-28T02:47:19;20.70;14.90
16532;DHT22;66872;63.142;14.482;2023-01-28T02:50:17;20.70;14.90
16532;DHT22;66872;63.142;14.482;2023-01-28T02:52:50;20.70;14.90
16532;DHT22;66872;63.142;14.482;2023-01-28T02:56:06;20.70;14.90
16532;DHT22;66872;63.142;14.482;2023-01-28T02:59:03;20.70;14.90
16532;DHT22;66872;63.142;14.482;2023-01-28T03:01:55;20.70;15.00
16532;DHT22;66872;63.142;14.482;2023-01-28T03:04:32;20.70;15.00
16532;DHT22;66872;63.142;14.482;2023-01-28T03:07:04;20.70;15.00
16532;DHT22;66872;63.142;14.482;2023-01-28T03:09:31;20.70;15.00
16532;DHT22;66872;63.142;14.482;2023-01-28T03:12:06;20.70;15.00
16532;DHT22;66872;63.142;14.482;2023-01-28T03:15:09;20.70;15.00
16532;DHT22;66872;63.142;14.482;2023-01-28T03:18:17;20.70;15.00
16532;DHT22;66872;63.142;14.482;2023-01-28T03:21:19;20.70;15.10
16532;DHT22;66872;63.142;14.482;2023-01-28T03:24:16;20.70;15.00
16532;DHT22;66872;63.142;14.482;2023-01-28T03:27:24;20.70;15.00
16532;DHT22;66872;63.142;14.482;2023-01-28T03:30:15;20.70;15.00
16532;DHT22;66872;63.142;14.482;2023-01-28T03:33:02;20.70;15.10
16532;DHT22;66872;63.142;14.482;2023-01-28T03:35:48;20.70;15.10
16532;DHT22;66872;63.142;14.482;2023-01-28T03:38:33;20.70;15.10
16532;DHT22;66872;63.142;14.482;2023-01-28T03:41:08;20.70;15.20
16532;DHT22;66872;63.142;14.482;2023-01-28T03:43:34;20.70;15.20
16532;DHT22;66872;63.142;14.482;2023-01-28T03:46:00;20.70;15.20
16532;DHT22;66872;63.142;14.482;2023-01-28T03:48:27;20.70;15.20
16532;DHT22;66872;63.142;14.482;2023-01-28T03:50:54;20.70;15.30
16532;DHT22;66872;63.142;14.482;2023-01-28T03:53:21;20.70;15.30
16532;DHT22;66872;63.142;14.482;2023-01-28T03:55:49;20.70;15.30
16532;DHT22;66872;63.142;14.482;2023-01-28T03:58:16;20.70;15.40
16532;DHT22;66872;63.142;14.482;2023-01-28T04:00:42;20.70;15.40
16532;DHT22;66872;63.142;14.482;2023-01-28T04:03:09;20.70;15.40
16532;DHT22;66872;63.142;14.482;2023-01-28T04:06:04;20.80;15.50
16532;DHT22;66872;63.142;14.482;2023-01-28T04:08:30;20.80;15.50
16532;DHT22;66872;63.142;14.482;2023-01-28T04:10:56;20.70;15.40
16532;DHT22;66872;63.142;14.482;2023-01-28T04:13:21;20.80;15.50
16532;DHT22;66872;63.142;14.482;2023-01-28T04:15:47;20.70;15.40
16532;DHT22;66872;63.142;14.482;2023-01-28T04:18:13;20.80;15.50
16532;DHT22;66872;63.142;14.482;2023-01-28T04:20:39;20.80;15.50
16532;DHT22;66872;63.142;14.482;2023-01-28T04:23:06;20.80;15.50
16532;DHT22;66872;63.142;14.482;2023-01-28T04:25:32;20.80;15.50
16532;DHT22;66872;63.142;14.482;2023-01-28T04:27:58;20.80;15.50
16532;DHT22;66872;63.142;14.482;2023-01-28T04:30:24;20.80;15.50
16532;DHT22;66872;63.142;14.482;2023-01-28T04:32:50;20.80;15.50
16532;DHT22;66872;63.142;14.482;2023-01-28T04:35:16;20.80;15.50
16532;DHT22;66872;63.142;14.482;2023-01-28T04:37:42;20.80;15.50
16532;DHT22;66872;63.142;14.482;2023-01-28T04:40:09;20.80;15.50
16532;DHT22;66872;63.142;14.482;2023-01-28T04:42:35;20.80;15.50
16532;DHT22;66872;63.142;14.482;2023-01-28T04:45:01;20.80;15.50
16532;DHT22;66872;63.142;14.482;2023-01-28T04:47:26;20.80;15.50
16532;DHT22;66872;63.142;14.482;2023-01-28T04:49:52;20.80;15.50
16532;DHT22;66872;63.142;14.482;2023-01-28T04:52:17;20.80;15.50
16532;DHT22;66872;63.142;14.482;2023-01-28T04:54:43;20.80;15.50
16532;DHT22;66872;63.142;14.482;2023-01-28T04:57:09;20.80;15.50
16532;DHT22;66872;63.142;14.482;2023-01-28T04:59:34;20.80;15.60
16532;DHT22;66872;63.142;14.482;2023-01-28T05:02:00;20.80;15.60
16532;DHT22;66872;63.142;14.482;2023-01-28T05:04:26;20.80;15.60
16532;DHT22;66872;63.142;14.482;2023-01-28T05:06:51;20.80;15.60
16532;DHT22;66872;63.142;14.482;2023-01-28T05:09:17;20.80;15.60
16532;DHT22;66872;63.142;14.482;2023-01-28T05:11:43;20.80;15.60
16532;DHT22;66872;63.142;14.482;2023-01-28T05:14:09;20.80;15.60
16532;DHT22;66872;63.142;14.482;2023-01-28T05:16:34;20.80;15.60
16532;DHT22;66872;63.142;14.482;2023-01-28T05:19:01;20.80;15.60
16532;DHT22;66872;63.142;14.482;2023-01-28T05:21:27;20.80;15.60
16532;DHT22;66872;63.142;14.482;2023-01-28T05:23:53;20.80;15.60
16532;DHT22;66872;63.142;14.482;2023-01-28T05:26:19;20.80;15.60
16532;DHT22;66872;63.142;14.482;2023-01-28T05:28:44;20.80;15.60
16532;DHT22;66872;63.142;14.482;2023-01-28T05:31:10;20.80;15.60
16532;DHT22;66872;63.142;14.482;2023-01-28T05:33:36;20.80;15.60
16532;DHT22;66872;63.142;14.482;2023-01-28T05:36:02;20.80;15.60
16532;DHT22;66872;63.142;14.482;2023-01-28T05:38:27;20.80;15.60
16532;DHT22;66872;63.142;14.482;2023-01-28T05:40:53;20.80;15.70
16532;DHT22;66872;63.142;14.482;2023-01-28T05:43:19;20.80;15.60
16532;DHT22;66872;63.142;14.482;2023-01-28T05:45:46;20.80;15.60
16532;DHT22;66872;63.142;14.482;2023-01-28T05:48:12;20.80;15.70
16532;DHT22;66872;63.142;14.482;2023-01-28T05:50:38;20.80;15.60
16532;DHT22;66872;63.142;14.482;2023-01-28T05:53:05;20.80;15.60
16532;DHT22;66872;63.142;14.482;2023-01-28T05:55:31;20.80;15.60
16532;DHT22;66872;63.142;14.482;2023-01-28T05:57:57;20.80;15.60
16532;DHT22;66872;63.142;14.482;2023-01-28T06:00:22;20.80;15.50
16532;DHT22;66872;63.142;14.482;2023-01-28T06:02:50;20.80;15.50
16532;DHT22;66872;63.142;14.482;2023-01-28T06:05:16;20.80;15.50
16532;DHT22;66872;63.142;14.482;2023-01-28T06:07:44;20.80;15.50
16532;DHT22;66872;63.142;14.482;2023-01-28T06:10:10;20.80;15.50
16532;DHT22;66872;63.142;14.482;2023-01-28T06:12:35;20.80;15.50
16532;DHT22;66872;63.142;14.482;2023-01-28T06:15:01;20.80;15.50
16532;DHT22;66872;63.142;14.482;2023-01-28T06:17:27;20.80;15.50
16532;DHT22;66872;63.142;14.482;2023-01-28T06:19:52;20.80;16.00
16532;DHT22;66872;63.142;14.482;2023-01-28T06:22:18;20.80;15.50
16532;DHT22;66872;63.142;14.482;2023-01-28T06:24:43;20.80;15.50
16532;DHT22;66872;63.142;14.482;2023-01-28T06:27:09;20.80;15.40
16532;DHT22;66872;63.142;14.482;2023-01-28T06:29:35;20.80;15.40
16532;DHT22;66872;63.142;14.482;2023-01-28T06:32:00;20.80;15.40
16532;DHT22;66872;63.142;14.482;2023-01-28T06:34:26;20.80;15.40
16532;DHT22;66872;63.142;14.482;2023-01-28T06:36:52;20.80;15.40
16532;DHT22;66872;63.142;14.482;2023-01-28T06:39:19;20.80;15.40
16532;DHT22;66872;63.142;14.482;2023-01-28T06:41:46;20.80;15.50
16532;DHT22;66872;63.142;14.482;2023-01-28T06:44:11;20.80;15.50
16532;DHT22;66872;63.142;14.482;2023-01-28T06:46:37;20.80;15.50
16532;DHT22;66872;63.142;14.482;2023-01-28T06:49:03;20.80;15.50
16532;DHT22;66872;63.142;14.482;2023-01-28T06:51:28;20.80;15.50
16532;DHT22;66872;63.142;14.482;2023-01-28T06:53:54;20.80;15.50
16532;DHT22;66872;63.142;14.482;2023-01-28T06:56:20;20.80;15.50
16532;DHT22;66872;63.142;14.482;2023-01-28T06:58:45;20.80;15.50
16532;DHT22;66872;63.142;14.482;2023-01-28T07:01:11;20.80;15.50
16532;DHT22;66872;63.142;14.482;2023-01-28T07:03:37;20.80;15.60
16532;DHT22;66872;63.142;14.482;2023-01-28T07:06:02;20.80;15.70
16532;DHT22;66872;63.142;14.482;2023-01-28T07:08:28;20.80;15.90
16532;DHT22;66872;63.142;14.482;2023-01-28T07:10:54;20.80;16.10
16532;DHT22;66872;63.142;14.482;2023-01-28T07:13:19;20.80;16.30
16532;DHT22;66872;63.142;14.482;2023-01-28T07:15:45;20.80;16.40
16532;DHT22;66872;63.142;14.482;2023-01-28T07:18:11;20.80;16.50
16532;DHT22;66872;63.142;14.482;2023-01-28T07:20:36;20.80;16.50
16532;DHT22;66872;63.142;14.482;2023-01-28T07:23:02;20.80;16.60
16532;DHT22;66872;63.142;14.482;2023-01-28T07:25:27;20.80;16.60
16532;DHT22;66872;63.142;14.482;2023-01-28T07:27:53;20.80;16.70
16532;DHT22;66872;63.142;14.482;2023-01-28T07:30:20;20.80;16.70
16532;DHT22;66872;63.142;14.482;2023-01-28T07:32:51;20.80;16.70
16532;DHT22;66872;63.142;14.482;2023-01-28T07:35:16;20.80;16.70
16532;DHT22;66872;63.142;14.482;2023-01-28T07:37:42;20.80;16.80
16532;DHT22;66872;63.142;14.482;2023-01-28T07:40:14;20.80;16.80
16532;DHT22;66872;63.142;14.482;2023-01-28T07:42:40;20.80;16.90
16532;DHT22;66872;63.142;14.482;2023-01-28T07:45:07;20.80;16.90
16532;DHT22;66872;63.142;14.482;2023-01-28T07:47:32;20.80;16.90
16532;DHT22;66872;63.142;14.482;2023-01-28T07:49:58;20.80;16.90
16532;DHT22;66872;63.142;14.482;2023-01-28T07:52:24;20.80;17.50
16532;DHT22;66872;63.142;14.482;2023-01-28T07:54:49;20.80;16.90
16532;DHT22;66872;63.142;14.482;2023-01-28T07:57:15;20.80;16.90
16532;DHT22;66872;63.142;14.482;2023-01-28T07:59:48;20.80;16.90
16532;DHT22;66872;63.142;14.482;2023-01-28T08:02:14;20.80;16.90
16532;DHT22;66872;63.142;14.482;2023-01-28T08:04:40;20.80;16.90
16532;DHT22;66872;63.142;14.482;2023-01-28T08:07:05;20.80;16.90
16532;DHT22;66872;63.142;14.482;2023-01-28T08:09:31;20.80;16.90
16532;DHT22;66872;63.142;14.482;2023-01-28T08:11:59;20.80;16.90
16532;DHT22;66872;63.142;14.482;2023-01-28T08:14:26;20.80;16.90
16532;DHT22;66872;63.142;14.482;2023-01-28T08:16:52;20.80;17.00
16532;DHT22;66872;63.142;14.482;2023-01-28T08:19:17;20.80;16.90
16532;DHT22;66872;63.142;14.482;2023-01-28T08:21:46;20.80;17.00
16532;DHT22;66872;63.142;14.482;2023-01-28T08:24:12;20.80;17.00
16532;DHT22;66872;63.142;14.482;2023-01-28T08:26:38;20.80;17.00
16532;DHT22;66872;63.142;14.482;2023-01-28T08:29:03;20.80;17.00
16532;DHT22;66872;63.142;14.482;2023-01-28T08:31:30;20.80;17.10
16532;DHT22;66872;63.142;14.482;2023-01-28T08:33:55;20.80;17.10
16532;DHT22;66872;63.142;14.482;2023-01-28T08:36:21;20.80;17.20
16532;DHT22;66872;63.142;14.482;2023-01-28T08:38:51;20.80;17.30
16532;DHT22;66872;63.142;14.482;2023-01-28T08:41:21;20.80;17.30
16532;DHT22;66872;63.142;14.482;2023-01-28T08:43:47;20.80;17.40
16532;DHT22;66872;63.142;14.482;2023-01-28T08:46:14;20.80;17.50
16532;DHT22;66872;63.142;14.482;2023-01-28T08:48:40;20.80;17.50
16532;DHT22;66872;63.142;14.482;2023-01-28T08:51:06;20.80;17.50
16532;DHT22;66872;63.142;14.482;2023-01-28T08:53:31;20.80;17.60
16532;DHT22;66872;63.142;14.482;2023-01-28T08:55:57;20.80;17.60
16532;DHT22;66872;63.142;14.482;2023-01-28T08:58:23;20.80;17.60
16532;DHT22;66872;63.142;14.482;2023-01-28T09:00:49;20.80;17.60
16532;DHT22;66872;63.142;14.482;2023-01-28T09:03:15;20.80;17.60
16532;DHT22;66872;63.142;14.482;2023-01-28T09:05:42;20.80;17.60
16532;DHT22;66872;63.142;14.482;2023-01-28T09:08:10;20.80;17.60
16532;DHT22;66872;63.142;14.482;2023-01-28T09:10:37;20.80;17.50
16532;DHT22;66872;63.142;14.482;2023-01-28T09:13:07;20.80;17.50
16532;DHT22;66872;63.142;14.482;2023-01-28T09:15:34;20.80;17.60
16532;DHT22;66872;63.142;14.482;2023-01-28T09:17:59;20.80;17.60
16532;DHT22;66872;63.142;14.482;2023-01-28T09:20:26;20.80;17.60
16532;DHT22;66872;63.142;14.482;2023-01-28T09:22:52;20.80;17.50
16532;DHT22;66872;63.142;14.482;2023-01-28T09:25:17;20.80;17.60
16532;DHT22;66872;63.142;14.482;2023-01-28T09:27:43;20.80;17.50
16532;DHT22;66872;63.142;14.482;2023-01-28T09:30:09;20.80;17.40
16532;DHT22;66872;63.142;14.482;2023-01-28T09:32:35;20.80;17.40
16532;DHT22;66872;63.142;14.482;2023-01-28T09:35:01;20.80;17.30
16532;DHT22;66872;63.142;14.482;2023-01-28T09:37:27;20.80;17.30
16532;DHT22;66872;63.142;14.482;2023-01-28T09:39:53;20.80;17.20
16532;DHT22;66872;63.142;14.482;2023-01-28T09:50:10;20.80;17.00
16532;DHT22;66872;63.142;14.482;2023-01-28T09:52:38;20.80;16.90
16532;DHT22;66872;63.142;14.482;2023-01-28T09:55:16;20.80;16.90
16532;DHT22;66872;63.142;14.482;2023-01-28T09:57:51;20.80;16.80
16532;DHT22;66872;63.142;14.482;2023-01-28T10:00:21;20.80;16.80
16532;DHT22;66872;63.142;14.482;2023-01-28T10:03:31;20.80;16.70
16532;DHT22;66872;63.142;14.482;2023-01-28T10:08:58;20.80;16.70
16532;DHT22;66872;63.142;14.482;2023-01-28T10:11:43;20.80;16.70
16532;DHT22;66872;63.142;14.482;2023-01-28T10:14:29;20.80;16.60
16532;DHT22;66872;63.142;14.482;2023-01-28T10:19:51;20.80;16.60
16532;DHT22;66872;63.142;14.482;2023-01-28T10:22:28;20.80;16.50
16532;DHT22;66872;63.142;14.482;2023-01-28T10:24:57;20.80;16.50
16532;DHT22;66872;63.142;14.482;2023-01-28T10:27:32;20.80;16.50
16532;DHT22;66872;63.142;14.482;2023-01-28T10:29:59;20.80;16.40
16532;DHT22;66872;63.142;14.482;2023-01-28T10:32:28;20.80;16.40
16532;DHT22;66872;63.142;14.482;2023-01-28T10:34:55;20.80;16.40
16532;DHT22;66872;63.142;14.482;2023-01-28T10:37:24;20.80;16.30
16532;DHT22;66872;63.142;14.482;2023-01-28T10:39:53;20.80;16.30
16532;DHT22;66872;63.142;14.482;2023-01-28T10:44:56;20.80;16.20
16532;DHT22;66872;63.142;14.482;2023-01-28T10:47:36;20.80;16.20
16532;DHT22;66872;63.142;14.482;2023-01-28T10:50:04;20.80;16.20
16532;DHT22;66872;63.142;14.482;2023-01-28T10:52:30;20.80;16.20
16532;DHT22;66872;63.142;14.482;2023-01-28T10:55:00;20.80;16.10
16532;DHT22;66872;63.142;14.482;2023-01-28T10:57:27;20.80;16.10
16532;DHT22;66872;63.142;14.482;2023-01-28T10:59:53;20.80;16.10
16532;DHT22;66872;63.142;14.482;2023-01-28T11:02:32;20.80;16.60
16532;DHT22;66872;63.142;14.482;2023-01-28T11:05:28;20.80;16.10
16532;DHT22;66872;63.142;14.482;2023-01-28T11:08:12;20.80;16.10
16532;DHT22;66872;63.142;14.482;2023-01-28T11:10:42;20.80;16.00
16532;DHT22;66872;63.142;14.482;2023-01-28T11:13:20;20.80;16.00
16532;DHT22;66872;63.142;14.482;2023-01-28T11:15:48;20.80;16.00
16532;DHT22;66872;63.142;14.482;2023-01-28T11:18:23;20.80;16.00
16532;DHT22;66872;63.142;14.482;2023-01-28T11:20:52;20.80;16.00
16532;DHT22;66872;63.142;14.482;2023-01-28T11:23:23;20.80;16.00
16532;DHT22;66872;63.142;14.482;2023-01-28T11:27:00;20.80;16.00
16532;DHT22;66872;63.142;14.482;2023-01-28T11:28:53;20.80;16.00
16532;DHT22;66872;63.142;14.482;2023-01-28T11:31:21;20.80;15.90
16532;DHT22;66872;63.142;14.482;2023-01-28T11:33:57;20.80;15.90
16532;DHT22;66872;63.142;14.482;2023-01-28T11:36:26;20.80;15.90
16532;DHT22;66872;63.142;14.482;2023-01-28T11:38:55;20.80;15.90
16532;DHT22;66872;63.142;14.482;2023-01-28T11:44:00;20.80;15.90
16532;DHT22;66872;63.142;14.482;2023-01-28T11:46:53;20.80;15.90
16532;DHT22;66872;63.142;14.482;2023-01-28T11:52:21;20.80;16.00
16532;DHT22;66872;63.142;14.482;2023-01-28T12:16:59;20.80;16.60
16532;DHT22;66872;63.142;14.482;2023-01-28T12:20:32;20.80;16.60
16532;DHT22;66872;63.142;14.482;2023-01-28T12:25:25;20.80;16.70
16532;DHT22;66872;63.142;14.482;2023-01-28T12:30:41;20.70;16.60
16532;DHT22;66872;63.142;14.482;2023-01-28T12:36:03;20.80;16.70
16532;DHT22;66872;63.142;14.482;2023-01-28T12:38:59;20.80;16.60
16532;DHT22;66872;63.142;14.482;2023-01-28T12:41:34;20.80;16.60
16532;DHT22;66872;63.142;14.482;2023-01-28T12:44:09;20.80;16.60
16532;DHT22;66872;63.142;14.482;2023-01-28T12:46:46;20.80;16.60
16532;DHT22;66872;63.142;14.482;2023-01-28T12:49:45;20.80;16.60
16532;DHT22;66872;63.142;14.482;2023-01-28T12:52:31;20.80;16.50
16532;DHT22;66872;63.142;14.482;2023-01-28T12:57:32;20.80;16.40
16532;DHT22;66872;63.142;14.482;2023-01-28T13:00:38;20.80;16.40
16532;DHT22;66872;63.142;14.482;2023-01-28T13:05:56;20.80;16.30
16532;DHT22;66872;63.142;14.482;2023-01-28T13:08:25;20.80;16.30
16532;DHT22;66872;63.142;14.482;2023-01-28T13:10:53;20.80;16.30
16532;DHT22;66872;63.142;14.482;2023-01-28T13:15:54;20.80;16.20
16532;DHT22;66872;63.142;14.482;2023-01-28T13:18:30;20.80;16.20
16532;DHT22;66872;63.142;14.482;2023-01-28T13:20:58;20.80;16.20
16532;DHT22;66872;63.142;14.482;2023-01-28T13:25:55;20.80;16.20
16532;DHT22;66872;63.142;14.482;2023-01-28T13:28:29;20.80;16.20
16532;DHT22;66872;63.142;14.482;2023-01-28T13:31:08;20.80;16.10
16532;DHT22;66872;63.142;14.482;2023-01-28T13:33:39;20.80;16.10
16532;DHT22;66872;63.142;14.482;2023-01-28T13:36:22;20.80;16.10
16532;DHT22;66872;63.142;14.482;2023-01-28T13:39:00;20.80;16.60
16532;DHT22;66872;63.142;14.482;2023-01-28T13:41:51;20.80;16.00
16532;DHT22;66872;63.142;14.482;2023-01-28T13:44:28;20.80;16.00
16532;DHT22;66872;63.142;14.482;2023-01-28T13:49:43;20.80;16.00
16532;DHT22;66872;63.142;14.482;2023-01-28T13:55:05;20.80;15.90
16532;DHT22;66872;63.142;14.482;2023-01-28T14:06:44;20.90;15.90
16532;DHT22;66872;63.142;14.482;2023-01-28T14:17:54;20.80;15.80
16532;DHT22;66872;63.142;14.482;2023-01-28T14:20:43;20.80;15.80
16532;DHT22;66872;63.142;14.482;2023-01-28T14:23:16;20.80;15.70
16532;DHT22;66872;63.142;14.482;2023-01-28T14:25:58;20.80;15.70
16532;DHT22;66872;63.142;14.482;2023-01-28T14:31:07;20.80;15.70
16532;DHT22;66872;63.142;14.482;2023-01-28T14:33:35;20.80;15.70
16532;DHT22;66872;63.142;14.482;2023-01-28T14:36:02;20.80;15.70
16532;DHT22;66872;63.142;14.482;2023-01-28T14:38:27;20.80;15.70
16532;DHT22;66872;63.142;14.482;2023-01-28T14:40:54;20.80;15.70
16532;DHT22;66872;63.142;14.482;2023-01-28T14:43:26;20.80;15.70
16532;DHT22;66872;63.142;14.482;2023-01-28T14:46:19;20.80;15.70
16532;DHT22;66872;63.142;14.482;2023-01-28T14:49:13;20.80;15.80
16532;DHT22;66872;63.142;14.482;2023-01-28T14:57:43;20.70;15.70
16532;DHT22;66872;63.142;14.482;2023-01-28T14:59:56;20.70;15.70
16532;DHT22;66872;63.142;14.482;2023-01-28T15:02:27;20.70;15.80
16532;DHT22;66872;63.142;14.482;2023-01-28T15:04:53;20.70;15.80
16532;DHT22;66872;63.142;14.482;2023-01-28T15:07:24;20.70;15.80
16532;DHT22;66872;63.142;14.482;2023-01-28T15:10:46;20.70;15.80
16532;DHT22;66872;63.142;14.482;2023-01-28T15:13:05;20.70;15.80
16532;DHT22;66872;63.142;14.482;2023-01-28T15:15:34;20.70;15.80
16532;DHT22;66872;63.142;14.482;2023-01-28T15:18:16;20.70;15.80
16532;DHT22;66872;63.142;14.482;2023-01-28T15:20:50;20.70;15.80
16532;DHT22;66872;63.142;14.482;2023-01-28T15:23:41;20.70;15.80
16532;DHT22;66872;63.142;14.482;2023-01-28T15:26:13;20.70;15.80
16532;DHT22;66872;63.142;14.482;2023-01-28T15:28:42;20.70;15.80
16532;DHT22;66872;63.142;14.482;2023-01-28T15:31:19;20.70;15.80
16532;DHT22;66872;63.142;14.482;2023-01-28T15:33:53;20.70;15.80
16532;DHT22;66872;63.142;14.482;2023-01-28T15:36:19;20.70;15.80
16532;DHT22;66872;63.142;14.482;2023-01-28T15:38:45;20.70;15.80
16532;DHT22;66872;63.142;14.482;2023-01-28T15:41:11;20.70;15.80
16532;DHT22;66872;63.142;14.482;2023-01-28T15:43:37;20.70;15.80
16532;DHT22;66872;63.142;14.482;2023-01-28T15:46:09;20.70;15.80
16532;DHT22;66872;63.142;14.482;2023-01-28T15:48:36;20.70;15.80
16532;DHT22;66872;63.142;14.482;2023-01-28T15:51:08;20.70;15.80
16532;DHT22;66872;63.142;14.482;2023-01-28T15:53:41;20.70;15.80
16532;DHT22;66872;63.142;14.482;2023-01-28T15:56:12;20.70;15.90
16532;DHT22;66872;63.142;14.482;2023-01-28T15:58:39;20.70;15.90
16532;DHT22;66872;63.142;14.482;2023-01-28T16:03:33;20.70;16.00
16532;DHT22;66872;63.142;14.482;2023-01-28T16:06:06;20.70;15.90
16532;DHT22;66872;63.142;14.482;2023-01-28T16:08:38;20.70;16.00
16532;DHT22;66872;63.142;14.482;2023-01-28T16:11:06;20.70;16.40
16532;DHT22;66872;63.142;14.482;2023-01-28T16:13:33;20.70;16.00
16532;DHT22;66872;63.142;14.482;2023-01-28T16:16:02;20.70;16.00
16532;DHT22;66872;63.142;14.482;2023-01-28T16:18:40;20.70;16.10
16532;DHT22;66872;63.142;14.482;2023-01-28T16:21:10;20.70;16.10
16532;DHT22;66872;63.142;14.482;2023-01-28T16:23:39;20.70;16.10
16532;DHT22;66872;63.142;14.482;2023-01-28T16:26:25;20.70;16.10
16532;DHT22;66872;63.142;14.482;2023-01-28T16:28:51;20.70;16.10
16532;DHT22;66872;63.142;14.482;2023-01-28T16:31:17;20.70;16.20
16532;DHT22;66872;63.142;14.482;2023-01-28T16:33:43;20.70;16.20
16532;DHT22;66872;63.142;14.482;2023-01-28T16:36:11;20.70;16.20
16532;DHT22;66872;63.142;14.482;2023-01-28T16:38:37;20.70;16.20
16532;DHT22;66872;63.142;14.482;2023-01-28T16:41:03;20.70;16.20
16532;DHT22;66872;63.142;14.482;2023-01-28T16:43:29;20.70;16.20
16532;DHT22;66872;63.142;14.482;2023-01-28T16:45:55;20.70;16.30
16532;DHT22;66872;63.142;14.482;2023-01-28T16:48:20;20.70;16.30
16532;DHT22;66872;63.142;14.482;2023-01-28T16:50:46;20.70;16.30
16532;DHT22;66872;63.142;14.482;2023-01-28T16:53:28;20.70;16.30
16532;DHT22;66872;63.142;14.482;2023-01-28T16:55:56;20.70;16.30
16532;DHT22;66872;63.142;14.482;2023-01-28T16:58:24;20.70;16.30
16532;DHT22;66872;63.142;14.482;2023-01-28T17:00:50;20.70;16.30
16532;DHT22;66872;63.142;14.482;2023-01-28T17:03:17;20.70;16.30
16532;DHT22;66872;63.142;14.482;2023-01-28T17:05:44;20.70;16.20
16532;DHT22;66872;63.142;14.482;2023-01-28T17:08:10;20.70;16.20
16532;DHT22;66872;63.142;14.482;2023-01-28T17:10:35;20.70;16.30
16532;DHT22;66872;63.142;14.482;2023-01-28T17:13:01;20.70;16.20
16532;DHT22;66872;63.142;14.482;2023-01-28T17:15:27;20.70;16.20
16532;DHT22;66872;63.142;14.482;2023-01-28T17:17:52;20.70;16.20
16532;DHT22;66872;63.142;14.482;2023-01-28T17:20:20;20.70;16.10
16532;DHT22;66872;63.142;14.482;2023-01-28T17:22:46;20.70;16.10
16532;DHT22;66872;63.142;14.482;2023-01-28T17:25:11;20.60;16.10
16532;DHT22;66872;63.142;14.482;2023-01-28T17:27:38;20.70;16.10